Time;durP1;ratioP1;P1;durP2;ratioP2;P2;SDS_P1;SDS_P2;PMS_P1;PMS_P2;Temp;Humidity;BMP_temperature;BMP_pressure;BME280_temperature;BME280_humidity;BME280_pressure;Samples;Min_cycle;Max_cycle;Signal;HPM_P1;HPM_P2
2022/05/01 00:00:47;;;;;;;5.75;2.70;;;;;;;19.30;41.85;101311.25;4957204;28;20443;-63
2022/05/01 00:03:36;;;;;;;5.60;2.60;;;;;;;19.28;42.71;101307.88;4959336;28;20047;-64
2022/05/01 00:06:07;;;;;;;3.28;2.30;;;;;;;19.27;42.81;101300.84;4956098;28;20057;-62
2022/05/01 00:08:36;;;;;;;4.38;2.88;;;;;;;19.23;43.41;101300.25;4957029;28;20055;-63
2022/05/01 00:11:03;;;;;;;4.40;2.60;;;;;;;19.22;44.06;101305.72;4957108;28;20117;-62
2022/05/01 00:13:47;;;;;;;5.13;3.38;;;;;;;19.18;43.81;101309.63;4959017;28;20162;-64
2022/05/01 00:16:14;;;;;;;6.28;5.20;;;;;;;19.15;44.36;101316.03;4956916;28;20118;-64
2022/05/01 00:18:41;;;;;;;7.70;5.75;;;;;;;19.09;44.17;101306.75;4957012;28;20484;-63
2022/05/01 00:21:08;;;;;;;7.25;4.95;;;;;;;19.08;44.01;101302.41;4955593;28;20130;-64
2022/05/01 00:23:35;;;;;;;9.15;6.00;;;;;;;19.08;43.94;101304.22;4956733;28;20059;-63
2022/05/01 00:26:04;;;;;;;6.60;4.90;;;;;;;19.04;44.58;101306.28;4955750;29;20055;-63
2022/05/01 00:28:37;;;;;;;7.07;4.80;;;;;;;19.04;44.24;101308.13;4956779;28;20054;-63
2022/05/01 00:31:05;;;;;;;6.88;5.30;;;;;;;19.03;44.46;101301.97;4956778;28;20404;-62
2022/05/01 00:36:27;;;;;;;7.93;6.28;;;;;;;19.01;44.30;101301.25;4956782;29;20043;-64
2022/05/01 00:38:57;;;;;;;8.27;5.82;;;;;;;19.00;43.91;101307.53;4948518;29;20467;-63
2022/05/01 00:41:27;;;;;;;7.95;5.20;;;;;;;18.98;43.83;101309.50;4955728;28;20054;-63
2022/05/01 00:44:05;;;;;;;7.85;5.95;;;;;;;18.97;43.58;101309.59;4956272;28;20051;-64
2022/05/01 00:46:34;;;;;;;6.40;5.43;;;;;;;18.96;43.49;101303.44;4956198;28;20058;-63
2022/05/01 00:49:03;;;;;;;7.20;5.30;;;;;;;18.94;43.82;101297.41;4956490;28;20043;-63
2022/05/01 00:51:33;;;;;;;6.65;4.88;;;;;;;18.93;43.76;101293.91;4956001;28;20043;-64
2022/05/01 00:54:02;;;;;;;5.25;4.63;;;;;;;18.94;43.48;101297.41;4956293;28;20118;-63
2022/05/01 00:56:33;;;;;;;6.65;4.75;;;;;;;18.94;43.39;101286.75;4955081;28;20567;-63
2022/05/01 00:59:00;;;;;;;9.85;5.30;;;;;;;18.93;43.34;101279.75;4956269;28;20436;-63
2022/05/01 01:01:27;;;;;;;7.03;5.90;;;;;;;18.86;44.00;101275.91;4955712;28;20047;-64
2022/05/01 01:03:54;;;;;;;10.85;6.28;;;;;;;18.81;43.88;101278.09;4955318;28;20102;-63
2022/05/01 01:06:22;;;;;;;7.45;6.72;;;;;;;18.82;44.25;101298.41;4955789;28;20054;-63
2022/05/01 01:08:49;;;;;;;8.50;5.55;;;;;;;18.74;44.21;101299.00;4956051;28;20110;-63
2022/05/01 01:11:15;;;;;;;7.63;5.82;;;;;;;18.73;43.86;101295.53;4956071;28;20050;-63
2022/05/01 01:13:43;;;;;;;8.93;6.18;;;;;;;18.72;44.11;101285.84;4954757;28;20071;-63
2022/05/01 01:16:10;;;;;;;9.38;6.80;;;;;;;18.72;43.63;101293.00;4955961;28;20052;-63
2022/05/01 01:18:39;;;;;;;9.40;6.93;;;;;;;18.71;43.81;101284.16;4955796;28;20055;-64
2022/05/01 01:21:10;;;;;;;10.35;6.40;;;;;;;18.69;44.16;101288.78;4955565;28;20055;-63
2022/05/01 01:23:41;;;;;;;10.50;6.88;;;;;;;18.64;44.97;101287.44;4955908;28;20055;-62
2022/05/01 01:26:09;;;;;;;10.18;7.43;;;;;;;18.55;45.49;101287.25;4955858;28;20043;-62
2022/05/01 01:28:38;;;;;;;8.02;6.75;;;;;;;18.54;45.79;101279.41;4954775;28;20047;-63
2022/05/01 01:33:57;;;;;;;10.23;7.40;;;;;;;18.48;46.19;101282.56;4955801;28;20055;-62
2022/05/01 01:36:28;;;;;;;11.18;7.43;;;;;;;18.50;46.16;101283.28;4955333;28;20476;-62
2022/05/01 01:38:55;;;;;;;11.80;7.75;;;;;;;18.47;46.58;101280.88;4955569;28;20047;-63
2022/05/01 01:41:25;;;;;;;14.45;7.60;;;;;;;18.41;47.02;101283.06;4955430;28;20523;-63
2022/05/01 01:43:52;;;;;;;11.70;7.45;;;;;;;18.39;47.33;101277.03;4955523;28;20055;-63
2022/05/01 01:46:19;;;;;;;15.60;8.32;;;;;;;18.35;47.61;101278.25;4954417;29;20043;-62
2022/05/01 01:48:46;;;;;;;11.32;7.80;;;;;;;18.32;48.17;101277.66;4955374;28;20043;-63
2022/05/01 01:51:13;;;;;;;12.63;7.13;;;;;;;18.30;48.39;101272.47;4955113;28;20047;-62
2022/05/01 01:53:41;;;;;;;12.98;7.20;;;;;;;18.27;48.47;101278.00;4955129;28;20050;-62
2022/05/01 01:56:08;;;;;;;12.95;7.68;;;;;;;18.30;47.84;101272.47;4955369;28;20099;-63
2022/05/01 01:58:37;;;;;;;12.02;7.88;;;;;;;18.30;47.53;101272.47;4954958;28;20054;-62
2022/05/01 02:01:06;;;;;;;9.75;7.85;;;;;;;18.29;47.64;101276.09;4955086;28;20047;-63
2022/05/01 02:03:36;;;;;;;11.80;7.53;;;;;;;18.22;47.62;101266.91;4953784;28;20051;-63
2022/05/01 02:06:04;;;;;;;12.13;7.88;;;;;;;18.18;48.23;101273.44;4954896;28;20051;-62
2022/05/01 02:08:34;;;;;;;10.82;7.75;;;;;;;18.17;48.60;101280.59;4954918;28;20055;-62
2022/05/01 02:11:04;;;;;;;11.35;7.68;;;;;;;18.13;48.45;101276.47;4954957;28;20070;-63
2022/05/01 02:13:34;;;;;;;10.85;7.75;;;;;;;18.08;48.58;101274.19;4954467;28;20127;-63
2022/05/01 02:16:01;;;;;;;11.02;8.40;;;;;;;18.07;48.64;101277.81;4954868;28;20047;-62
2022/05/01 02:18:28;;;;;;;14.93;9.15;;;;;;;18.03;48.86;101279.03;4954985;28;20072;-62
2022/05/01 02:23:40;;;;;;;11.77;8.37;;;;;;;18.04;48.45;101266.59;4954545;28;20055;-62
2022/05/01 02:26:07;;;;;;;14.07;8.15;;;;;;;18.04;48.74;101266.59;4954417;28;20101;-63
2022/05/01 02:28:34;;;;;;;10.15;7.30;;;;;;;18.07;48.24;101274.31;4954701;28;20043;-63
2022/05/01 02:31:00;;;;;;;10.55;7.72;;;;;;;18.05;48.33;101274.44;4954413;28;20047;-64
2022/05/01 02:33:27;;;;;;;16.45;9.00;;;;;;;18.02;48.15;101269.38;4954317;28;20130;-62
2022/05/01 02:35:54;;;;;;;12.05;9.05;;;;;;;17.99;48.96;101274.94;4953287;28;20381;-63
2022/05/01 02:38:20;;;;;;;10.10;8.30;;;;;;;17.96;49.55;101269.84;4954112;28;20052;-64
2022/05/01 02:40:47;;;;;;;9.57;8.50;;;;;;;17.96;49.62;101256.59;4954422;28;20106;-64
2022/05/01 02:43:14;;;;;;;12.82;8.02;;;;;;;17.94;49.70;101264.69;4954201;28;20043;-63
2022/05/01 02:45:40;;;;;;;13.40;8.35;;;;;;;17.94;49.90;101269.13;4954420;28;20109;-63
2022/05/01 02:48:08;;;;;;;9.07;8.18;;;;;;;17.95;50.17;101268.16;4954132;28;20048;-63
2022/05/01 02:50:34;;;;;;;9.80;8.15;;;;;;;17.95;49.89;101269.03;4953816;28;20102;-62
2022/05/01 02:53:04;;;;;;;9.48;8.07;;;;;;;17.95;50.22;101262.84;4953211;28;20047;-63
2022/05/01 02:55:32;;;;;;;9.23;7.68;;;;;;;17.95;50.29;101254.88;4954019;28;20051;-63
2022/05/01 02:57:59;;;;;;;11.50;8.40;;;;;;;17.96;50.15;101253.94;4954474;28;20047;-63
2022/05/01 03:00:26;;;;;;;11.30;8.77;;;;;;;17.98;50.46;101256.44;4953829;28;20122;-64
2022/05/01 03:02:55;;;;;;;10.63;8.50;;;;;;;17.97;50.33;101254.75;4950748;28;20509;-63
2022/05/01 03:05:26;;;;;;;8.98;8.07;;;;;;;17.97;50.52;101252.09;4950127;28;20133;-63
2022/05/01 03:07:56;;;;;;;12.15;9.05;;;;;;;17.82;50.74;101255.00;4950801;28;20058;-63
2022/05/01 03:10:25;;;;;;;11.13;8.02;;;;;;;17.82;50.61;101262.97;4949720;28;20094;-63
2022/05/01 03:12:51;;;;;;;11.77;8.10;;;;;;;17.81;50.55;101260.44;4940281;29;20055;-63
2022/05/01 03:15:18;;;;;;;10.55;9.27;;;;;;;17.83;50.29;101263.81;4950709;28;20050;-63
2022/05/01 03:23:15;;;;;;;12.38;8.20;;;;;;;17.85;50.00;101248.59;4950669;28;20051;-64
2022/05/01 03:25:42;;;;;;;11.00;8.02;;;;;;;17.84;50.16;101239.78;4951694;28;20082;-63
2022/05/01 03:28:08;;;;;;;10.93;8.45;;;;;;;17.83;50.20;101245.22;4953620;28;20058;-63
2022/05/01 03:30:35;;;;;;;12.50;8.68;;;;;;;17.79;50.32;101242.81;4954630;28;20062;-63
2022/05/01 03:33:05;;;;;;;11.77;9.30;;;;;;;17.76;50.80;101248.38;4954363;28;20047;-63
2022/05/01 03:35:36;;;;;;;10.38;8.68;;;;;;;17.72;50.87;101238.94;4954666;28;20051;-63
2022/05/01 03:38:04;;;;;;;12.02;8.85;;;;;;;17.68;51.21;101237.50;4954505;28;20051;-64
2022/05/01 03:40:31;;;;;;;11.55;9.20;;;;;;;17.66;50.93;101236.81;4954184;28;20499;-63
2022/05/01 03:42:57;;;;;;;11.07;9.35;;;;;;;17.64;51.12;101236.06;4953354;28;20056;-63
2022/05/01 03:45:24;;;;;;;16.75;10.50;;;;;;;17.64;50.85;101233.41;4954186;28;20043;-63
2022/05/01 03:47:51;;;;;;;15.05;10.23;;;;;;;17.65;50.93;101234.25;4954507;28;20054;-63
2022/05/01 03:50:18;;;;;;;13.40;9.50;;;;;;;17.66;50.80;101236.81;4954000;28;20051;-63
2022/05/01 03:52:45;;;;;;;14.38;8.75;;;;;;;17.66;51.15;101231.50;4954385;28;20055;-63
2022/05/01 03:55:12;;;;;;;14.30;8.65;;;;;;;17.67;51.18;101229.66;4954029;28;20051;-62
2022/05/01 03:57:39;;;;;;;12.30;9.35;;;;;;;17.67;51.15;101238.47;4953313;28;20092;-63
2022/05/01 04:00:10;;;;;;;12.15;8.55;;;;;;;17.66;51.53;101241.25;4954120;28;20047;-62
2022/05/01 04:02:42;;;;;;;11.68;8.38;;;;;;;17.66;51.39;101244.75;4954030;28;20055;-63
2022/05/01 04:05:12;;;;;;;9.57;7.43;;;;;;;17.64;51.27;101246.69;4953862;28;20051;-63
2022/05/01 04:07:40;;;;;;;7.53;6.72;;;;;;;17.65;51.30;101247.50;4940379;29;20071;-62
2022/05/01 04:10:08;;;;;;;9.32;6.32;;;;;;;17.63;51.50;101252.94;4953950;28;20094;-63
2022/05/01 04:12:36;;;;;;;8.05;5.95;;;;;;;17.64;50.80;101254.63;4953920;28;20051;-63
2022/05/01 04:15:03;;;;;;;6.97;6.15;;;;;;;17.65;50.20;101255.47;4953041;28;20054;-63
2022/05/01 04:17:30;;;;;;;10.98;8.60;;;;;;;17.65;50.16;101256.34;4953912;28;20099;-63
2022/05/01 04:19:57;;;;;;;12.38;8.45;;;;;;;17.66;49.99;101252.72;4953101;28;20385;-63
2022/05/01 04:22:24;;;;;;;13.93;9.23;;;;;;;17.67;49.31;101259.69;4953505;28;20055;-63
2022/05/01 04:24:51;;;;;;;10.43;8.90;;;;;;;17.68;49.41;101264.03;4953254;28;20106;-63
2022/05/01 04:27:17;;;;;;;8.95;8.05;;;;;;;17.69;49.54;101259.59;4953741;28;20043;-63
2022/05/01 04:29:44;;;;;;;10.40;8.98;;;;;;;17.68;49.65;101265.88;4953609;28;20059;-62
2022/05/01 04:32:16;;;;;;;10.95;8.82;;;;;;;17.67;49.96;101266.81;4952281;28;20497;-62
2022/05/01 04:34:43;;;;;;;11.02;8.70;;;;;;;17.65;49.76;101266.94;4953178;28;20047;-63
2022/05/01 04:37:10;;;;;;;9.18;7.72;;;;;;;17.62;50.00;101275.13;4953078;28;20271;-63
2022/05/01 04:39:37;;;;;;;12.57;7.75;;;;;;;17.57;50.46;101270.22;4953292;28;20056;-63
2022/05/01 04:42:04;;;;;;;9.82;8.07;;;;;;;17.54;51.06;101275.75;4953214;28;20048;-63
2022/05/01 04:44:30;;;;;;;16.80;8.98;;;;;;;17.50;51.33;101274.28;4953119;28;20055;-63
2022/05/01 04:46:57;;;;;;;10.82;9.32;;;;;;;17.47;51.30;101282.47;4951039;28;20068;-63
2022/05/01 04:49:24;;;;;;;16.10;9.57;;;;;;;17.43;51.58;101279.25;4953288;28;20043;-62
2022/05/01 04:51:51;;;;;;;15.15;9.32;;;;;;;17.43;51.34;101279.25;4952852;28;20047;-63
2022/05/01 04:54:17;;;;;;;13.68;9.73;;;;;;;17.37;51.88;101276.19;4953182;28;20046;-63
2022/05/01 04:59:29;;;;;;;15.65;10.40;;;;;;;17.43;51.83;101286.34;4953241;29;20118;-62
2022/05/01 05:01:56;;;;;;;12.60;10.02;;;;;;;17.44;51.50;101293.34;4952677;28;20424;-63
2022/05/01 05:04:30;;;;;;;10.93;9.25;;;;;;;17.42;51.79;101292.59;4951590;28;20087;-64
2022/05/01 05:06:56;;;;;;;10.30;8.60;;;;;;;17.45;51.88;101295.03;4952355;28;20488;-63
2022/05/01 05:12:09;;;;;;;11.75;9.60;;;;;;;17.52;52.10;101298.91;4952599;29;20040;-62
2022/05/01 05:14:36;;;;;;;15.10;10.63;;;;;;;17.55;51.79;101297.84;4952762;28;20048;-63
2022/05/01 05:17:06;;;;;;;15.35;12.00;;;;;;;17.60;51.68;101301.81;4952686;28;20047;-63
2022/05/01 05:19:34;;;;;;;20.27;14.68;;;;;;;17.62;51.74;101306.97;4952355;28;20059;-63
2022/05/01 05:22:01;;;;;;;23.23;16.95;;;;;;;17.63;51.66;101303.38;4951318;28;20051;-63
2022/05/01 05:24:29;;;;;;;25.02;18.92;;;;;;;17.67;51.72;101306.63;4952299;28;20047;-63
2022/05/01 05:26:56;;;;;;;26.40;18.65;;;;;;;17.64;51.27;101302.41;4952654;28;20043;-63
2022/05/01 05:29:23;;;;;;;25.85;18.40;;;;;;;17.67;51.21;101307.47;4952333;28;20055;-63
2022/05/01 05:31:50;;;;;;;25.67;18.80;;;;;;;17.69;50.89;101305.56;4952094;28;20047;-63
2022/05/01 05:34:17;;;;;;;22.40;16.67;;;;;;;17.73;50.85;101308.81;4952473;28;20047;-63
2022/05/01 05:36:44;;;;;;;19.90;14.80;;;;;;;17.73;50.29;101314.97;4951342;28;20114;-63
2022/05/01 05:39:10;;;;;;;16.63;14.40;;;;;;;17.73;50.22;101312.31;4952379;28;20058;-62
2022/05/01 05:41:37;;;;;;;15.95;13.43;;;;;;;17.72;50.64;101315.09;4952073;28;20106;-63
2022/05/01 05:44:04;;;;;;;16.08;12.98;;;;;;;17.72;51.13;101325.69;4952008;28;20453;-63
2022/05/01 05:46:31;;;;;;;20.17;14.65;;;;;;;17.69;52.02;101320.66;4951969;28;20051;-63
2022/05/01 05:48:58;;;;;;;22.05;16.30;;;;;;;17.68;52.09;101322.44;4951330;28;20046;-62
2022/05/01 05:51:25;;;;;;;21.85;16.98;;;;;;;17.68;52.01;101314.47;4950660;28;20052;-63
2022/05/01 05:53:52;;;;;;;23.13;16.58;;;;;;;17.66;52.01;101320.88;4951931;28;20055;-63
2022/05/01 05:56:20;;;;;;;23.77;17.63;;;;;;;17.69;52.09;101320.66;4951825;28;20106;-63
2022/05/01 05:58:47;;;;;;;23.40;17.45;;;;;;;17.71;52.04;101324.00;4952186;28;20043;-62
2022/05/01 06:01:14;;;;;;;21.65;16.17;;;;;;;17.73;52.13;101322.91;4946641;28;20046;-62
2022/05/01 06:03:41;;;;;;;21.48;16.02;;;;;;;17.77;51.59;101332.34;4947309;29;20455;-62
2022/05/01 06:06:08;;;;;;;24.75;18.50;;;;;;;17.71;51.81;101330.19;4951407;28;20047;-62
2022/05/01 06:08:36;;;;;;;26.10;19.27;;;;;;;17.62;52.39;101333.53;4950381;28;20427;-62
2022/05/01 06:11:02;;;;;;;30.23;21.77;;;;;;;17.67;51.84;101335.84;4951549;28;20046;-63
2022/05/01 06:13:29;;;;;;;23.88;10.63;;;;;;;17.89;51.87;101340.31;4951350;28;20195;-63
2022/05/01 06:15:57;;;;;;;8.73;3.83;;;;;;;18.19;51.90;101347.69;4960214;28;20054;-64
2022/05/01 06:18:23;;;;;;;13.32;8.38;;;;;;;18.37;51.71;101333.91;4935113;29;20123;-66
2022/05/01 06:20:50;;;;;;;14.50;9.32;;;;;;;18.57;52.05;101334.97;4944005;29;20130;-64
2022/05/01 06:23:21;;;;;;;23.27;13.32;;;;;;;18.75;51.94;101332.63;4954572;28;20071;-64
2022/05/01 06:25:48;;;;;;;35.70;14.18;;;;;;;18.87;52.37;101334.28;4950315;28;20113;-66
2022/05/01 06:28:16;;;;;;;13.23;10.95;;;;;;;18.69;52.58;101330.44;4951523;28;20046;-64
2022/05/01 06:30:48;;;;;;;14.93;11.13;;;;;;;18.55;52.36;101340.41;4951404;28;20575;-65
2022/05/01 06:33:17;;;;;;;11.75;8.68;;;;;;;18.48;51.91;101341.03;4951407;28;20146;-64
2022/05/01 06:35:47;;;;;;;11.43;8.38;;;;;;;18.42;51.33;101334.38;4942322;28;20051;-64
2022/05/01 06:38:13;;;;;;;10.20;7.50;;;;;;;18.42;51.20;101342.34;4946674;29;20051;-63
2022/05/01 06:40:43;;;;;;;9.68;7.15;;;;;;;18.39;50.67;101339.97;4950159;28;20107;-63
2022/05/01 06:43:14;;;;;;;20.35;9.10;;;;;;;18.44;50.17;101335.94;4951158;28;20055;-65
2022/05/01 06:45:45;;;;;;;8.98;7.10;;;;;;;18.64;50.37;101333.50;4950907;28;20055;-63
2022/05/01 06:48:17;;;;;;;12.63;7.35;;;;;;;18.59;50.20;101333.88;4947609;28;20127;-63
2022/05/01 06:50:44;;;;;;;20.75;7.57;;;;;;;18.71;50.24;101329.34;4936856;28;20051;-63
2022/05/01 06:53:10;;;;;;;26.60;8.25;;;;;;;18.90;49.83;101327.88;4935397;29;20047;-63
2022/05/01 06:55:37;;;;;;;7.03;5.43;;;;;;;18.88;49.61;101329.78;4937245;29;20055;-62
2022/05/01 06:58:04;;;;;;;13.70;5.70;;;;;;;18.76;49.42;101332.47;4940963;28;20055;-62
2022/05/01 07:00:31;;;;;;;6.75;4.88;;;;;;;18.70;49.16;101337.47;4935620;29;20045;-62
2022/05/01 07:02:59;;;;;;;6.88;4.90;;;;;;;18.81;48.35;101339.25;4940740;29;20126;-62
2022/05/01 07:05:26;;;;;;;9.75;4.80;;;;;;;18.79;47.85;101335.88;4953110;28;20061;-62
2022/05/01 07:07:54;;;;;;;5.25;4.72;;;;;;;18.84;47.60;101333.69;4953027;28;20043;-62
2022/05/01 07:10:22;;;;;;;8.63;4.47;;;;;;;18.86;47.42;101329.91;4950341;28;20086;-63
2022/05/01 07:12:49;;;;;;;7.70;4.35;;;;;;;18.91;46.78;101333.06;4951626;28;20047;-63
2022/05/01 07:15:16;;;;;;;7.55;4.68;;;;;;;18.92;46.63;101328.59;4951569;28;20098;-63
2022/05/01 07:17:43;;;;;;;4.50;3.70;;;;;;;18.92;46.71;101334.75;4950246;28;20055;-63
2022/05/01 07:20:10;;;;;;;5.75;4.38;;;;;;;18.90;46.17;101326.06;4950276;28;20051;-63
2022/05/01 07:22:43;;;;;;;6.15;4.10;;;;;;;18.83;46.19;101324.00;4950593;28;20047;-65
2022/05/01 07:25:10;;;;;;;5.25;3.97;;;;;;;18.80;46.28;101324.28;4950592;28;20055;-62
2022/05/01 07:27:37;;;;;;;7.05;3.95;;;;;;;18.81;45.94;101332.09;4941106;28;20066;-63
2022/05/01 07:30:04;;;;;;;5.22;4.00;;;;;;;18.86;45.21;101323.75;4938543;29;20054;-62
2022/05/01 07:32:30;;;;;;;5.28;3.60;;;;;;;18.95;45.46;101315.03;4943786;28;20522;-62
2022/05/01 07:34:57;;;;;;;6.00;3.38;;;;;;;19.01;44.80;101317.19;4937112;29;20047;-61
2022/05/01 07:37:26;;;;;;;4.30;3.13;;;;;;;19.02;45.10;101316.22;4937087;29;20733;-63
2022/05/01 07:39:54;;;;;;;3.65;2.80;;;;;;;19.11;44.37;101316.41;4946634;29;20488;-63
2022/05/01 07:42:24;;;;;;;3.83;2.85;;;;;;;19.14;44.50;101310.84;4936382;28;20071;-62
2022/05/01 07:44:51;;;;;;;5.43;2.72;;;;;;;19.19;44.22;101311.31;4944982;29;20051;-63
2022/05/01 07:47:18;;;;;;;4.45;2.72;;;;;;;19.26;43.73;101315.13;4950291;28;20043;-62
2022/05/01 07:49:45;;;;;;;3.55;2.28;;;;;;;19.32;43.67;101311.13;4945265;28;20047;-62
2022/05/01 07:52:13;;;;;;;3.88;2.13;;;;;;;19.44;43.38;101307.41;4947863;29;20051;-63
2022/05/01 07:54:40;;;;;;;4.97;2.58;;;;;;;19.55;43.16;101310.00;4948461;28;20051;-62
2022/05/01 07:57:07;;;;;;;5.97;2.33;;;;;;;19.65;42.55;101303.88;4948882;28;20075;-63
2022/05/01 07:59:33;;;;;;;5.95;2.58;;;;;;;19.65;42.55;101302.03;4948878;28;20052;-62
2022/05/01 08:02:00;;;;;;;4.07;2.60;;;;;;;19.71;42.23;101298.03;4948592;28;20043;-63
2022/05/01 08:04:30;;;;;;;5.50;2.83;;;;;;;19.74;42.40;101303.06;4952904;28;20385;-63
2022/05/01 08:06:58;;;;;;;5.88;3.25;;;;;;;19.71;42.26;101298.84;4948543;28;20043;-62
2022/05/01 08:09:26;;;;;;;4.60;3.30;;;;;;;19.82;41.91;101308.63;4948721;28;20114;-63
2022/05/01 08:11:53;;;;;;;3.90;2.72;;;;;;;19.94;41.69;101300.53;4951408;28;20084;-62
2022/05/01 08:14:21;;;;;;;4.97;2.97;;;;;;;19.98;41.61;101296.63;4951383;28;20070;-66
2022/05/01 08:16:49;;;;;;;4.30;2.30;;;;;;;20.10;41.34;101300.00;4954062;28;20075;-62
2022/05/01 08:22:02;;;;;;;2.50;2.03;;;;;;;20.30;40.53;101296.44;4941899;29;20114;-62
2022/05/01 08:24:29;;;;;;;3.30;2.10;;;;;;;20.39;40.07;101290.28;4952418;28;20058;-63
2022/05/01 08:26:56;;;;;;;3.92;1.73;;;;;;;20.43;39.75;101290.84;4953584;28;20102;-62
2022/05/01 08:29:22;;;;;;;2.90;1.75;;;;;;;20.63;39.47;101283.72;4953414;28;20055;-62
2022/05/01 08:31:49;;;;;;;2.38;1.83;;;;;;;21.21;38.62;101282.81;4952916;28;20047;-62
2022/05/01 08:34:16;;;;;;;2.90;1.65;;;;;;;21.84;37.17;101286.75;4953668;28;20161;-63
2022/05/01 08:36:45;;;;;;;2.67;1.50;;;;;;;22.37;36.35;101280.84;4952550;28;20047;-63
2022/05/01 08:39:12;;;;;;;2.38;1.50;;;;;;;22.48;36.30;101281.47;4953252;28;20061;-62
2022/05/01 08:41:39;;;;;;;2.33;1.55;;;;;;;22.40;36.49;101288.56;4953103;28;20085;-63
2022/05/01 08:44:12;;;;;;;2.58;1.75;;;;;;;22.80;35.48;101274.75;4953487;28;20118;-63
2022/05/01 08:46:48;;;;;;;3.85;2.20;;;;;;;23.46;34.26;101277.91;4952919;28;20059;-63
2022/05/01 08:49:17;;;;;;;3.65;2.20;;;;;;;23.76;33.53;101277.56;4953272;28;20047;-62
2022/05/01 08:51:44;;;;;;;2.05;1.80;;;;;;;23.17;34.51;101285.41;4951709;28;20109;-63
2022/05/01 08:54:13;;;;;;;2.25;1.75;;;;;;;22.72;35.02;101284.53;4953181;28;20054;-63
2022/05/01 08:56:43;;;;;;;3.03;1.63;;;;;;;22.49;35.36;101274.28;4952955;29;20047;-62
2022/05/01 08:59:11;;;;;;;3.05;2.13;;;;;;;22.27;35.25;101283.53;4943909;29;20137;-62
2022/05/01 09:01:39;;;;;;;4.15;1.70;;;;;;;22.04;35.68;101283.13;4952755;28;20646;-63
2022/05/01 09:04:08;;;;;;;3.30;1.90;;;;;;;21.91;36.14;101284.31;4952752;28;20074;-62
2022/05/01 09:06:35;;;;;;;3.67;2.22;;;;;;;21.79;36.33;101277.50;4952389;28;20424;-63
2022/05/01 09:09:10;;;;;;;2.60;1.77;;;;;;;21.67;36.07;101274.16;4951334;28;20067;-63
2022/05/01 09:14:25;;;;;;;3.58;1.85;;;;;;;21.51;36.00;101280.09;4952605;29;20055;-63
2022/05/01 09:17:14;;;;;;;4.90;1.92;;;;;;;21.47;35.47;101278.69;4952714;28;20126;-62
2022/05/01 09:19:43;;;;;;;2.90;1.95;;;;;;;21.40;35.48;101281.09;4952380;28;20054;-62
2022/05/01 09:22:11;;;;;;;4.03;2.45;;;;;;;21.44;35.18;101285.16;4952549;28;20107;-63
2022/05/01 09:24:38;;;;;;;2.95;2.30;;;;;;;21.48;34.92;101277.72;4951206;28;20044;-63
2022/05/01 09:27:05;;;;;;;3.80;1.73;;;;;;;21.76;34.21;101275.09;4951642;28;20066;-64
2022/05/01 09:29:34;;;;;;;3.53;2.00;;;;;;;21.95;33.99;101277.69;4952366;28;20062;-63
2022/05/01 09:32:03;;;;;;;3.25;2.17;;;;;;;22.46;33.26;101278.13;4952883;28;20511;-63
2022/05/01 09:34:32;;;;;;;3.15;2.08;;;;;;;22.43;33.24;101269.56;4952266;28;20057;-64
2022/05/01 09:37:03;;;;;;;3.58;1.85;;;;;;;22.28;32.94;101278.06;4952482;28;20488;-63
2022/05/01 09:39:33;;;;;;;2.42;1.88;;;;;;;22.38;32.17;101267.31;4952373;28;20055;-63
2022/05/01 09:42:18;;;;;;;3.95;2.10;;;;;;;22.56;31.97;101261.97;4951000;28;20043;-63
2022/05/01 09:45:06;;;;;;;5.50;2.00;;;;;;;22.95;31.30;101258.13;4952663;28;20431;-63
2022/05/01 09:47:44;;;;;;;3.30;2.00;;;;;;;23.30;30.48;101257.22;4952315;28;20451;-63
2022/05/01 09:50:13;;;;;;;3.20;2.00;;;;;;;23.77;29.93;101258.63;4951866;28;20047;-63
2022/05/01 09:53:01;;;;;;;2.88;2.05;;;;;;;24.12;29.56;101255.91;4952070;28;20055;-64
2022/05/01 09:55:29;;;;;;;5.18;3.00;;;;;;;24.46;29.23;101249.63;4951766;28;20067;-64
2022/05/01 09:58:11;;;;;;;3.28;2.15;;;;;;;24.70;28.62;101243.44;4951340;28;20047;-64
2022/05/01 10:00:46;;;;;;;4.45;2.15;;;;;;;25.00;28.07;101241.09;4951516;28;20484;-63
2022/05/01 10:03:31;;;;;;;3.47;2.05;;;;;;;25.40;27.62;101238.50;4952086;28;20051;-63
2022/05/01 10:06:00;;;;;;;3.10;1.90;;;;;;;25.54;27.52;101235.09;4938120;29;20058;-63
2022/05/01 10:08:27;;;;;;;4.32;2.00;;;;;;;25.94;26.94;101235.09;4951957;28;20047;-63
2022/05/01 10:10:59;;;;;;;2.40;1.80;;;;;;;26.34;26.47;101229.66;4951830;28;20385;-63
2022/05/01 10:13:27;;;;;;;2.72;1.88;;;;;;;26.43;26.45;101223.19;4950691;28;20492;-64
2022/05/01 10:16:07;;;;;;;5.15;1.77;;;;;;;26.62;25.92;101226.41;4951319;28;20043;-63
2022/05/01 10:18:35;;;;;;;7.03;2.30;;;;;;;26.60;26.01;101223.06;4953267;28;20046;-64
2022/05/01 10:21:03;;;;;;;4.75;2.10;;;;;;;26.71;26.03;101214.53;4954712;28;20063;-63
2022/05/01 10:23:31;;;;;;;3.78;2.03;;;;;;;26.86;26.28;101220.00;4951442;28;20058;-64
2022/05/01 10:26:19;;;;;;;3.83;2.10;;;;;;;26.84;26.60;101213.94;4951252;28;20059;-62
2022/05/01 10:29:26;;;;;;;2.80;1.80;;;;;;;26.89;26.66;101212.38;4949202;28;20050;-66
2022/05/01 10:32:21;;;;;;;2.63;2.10;;;;;;;26.20;27.77;101215.13;4950495;28;20051;-65
2022/05/01 10:35:45;;;;;;;8.70;2.70;;;;;;;24.94;29.36;101217.59;4950620;28;20067;-62
2022/05/01 10:38:17;;;;;;;4.97;2.30;;;;;;;25.59;28.77;101213.06;4950937;28;20128;-64
2022/05/01 10:40:53;;;;;;;3.20;2.15;;;;;;;25.45;28.82;101206.59;4951012;28;20492;-63
2022/05/01 10:43:24;;;;;;;2.72;1.92;;;;;;;25.00;29.22;101208.00;4950802;28;20132;-63
2022/05/01 10:45:56;;;;;;;3.65;2.05;;;;;;;24.51;29.99;101200.84;4951189;28;20059;-64
2022/05/01 10:48:39;;;;;;;3.50;2.00;;;;;;;24.18;30.13;101195.44;4949748;28;20043;-63
2022/05/01 10:51:27;;;;;;;2.78;2.25;;;;;;;24.83;28.96;101197.31;4950784;28;20102;-63
2022/05/01 10:54:15;;;;;;;3.17;1.95;;;;;;;24.07;29.92;101205.47;4950192;29;20039;-64
2022/05/01 10:56:46;;;;;;;4.57;2.03;;;;;;;23.57;30.84;101211.66;4950724;28;20054;-64
2022/05/01 10:59:34;;;;;;;3.58;1.42;;;;;;;23.06;31.70;101196.31;4950939;28;20043;-64
2022/05/01 11:02:38;;;;;;;2.50;1.70;;;;;;;22.75;32.23;101201.28;4950624;28;20043;-64
2022/05/01 11:05:10;;;;;;;3.25;2.08;;;;;;;22.52;32.75;101193.75;4949382;28;20079;-63
2022/05/01 11:07:39;;;;;;;3.50;1.80;;;;;;;22.34;33.04;101199.06;4950491;28;20051;-63
2022/05/01 11:10:09;;;;;;;2.38;1.63;;;;;;;22.23;33.56;101196.63;4950554;28;20073;-63
2022/05/01 11:12:37;;;;;;;2.22;1.65;;;;;;;22.15;33.42;101198.22;4950517;28;20047;-63
2022/05/01 11:15:08;;;;;;;3.28;1.70;;;;;;;22.11;34.09;101204.88;4950750;28;20051;-62
2022/05/01 11:17:46;;;;;;;6.25;2.15;;;;;;;22.00;34.34;101197.94;4950712;28;20476;-63
2022/05/01 11:20:19;;;;;;;9.23;2.95;;;;;;;21.77;36.34;101210.84;4948151;29;20047;-63
2022/05/01 11:22:46;;;;;;;14.00;3.88;;;;;;;21.51;38.49;101210.69;4950507;28;20059;-63
2022/05/01 11:25:31;;;;;;;8.55;2.58;;;;;;;21.14;42.08;101206.16;4950653;28;20464;-63
2022/05/01 11:27:58;;;;;;;6.68;2.35;;;;;;;20.83;43.52;101199.19;4950725;28;20055;-63
2022/05/01 11:30:27;;;;;;;5.13;2.75;;;;;;;20.91;44.30;101206.47;4950436;28;20055;-63
2022/05/01 11:33:11;;;;;;;4.78;2.95;;;;;;;20.87;46.02;101210.44;4950633;28;20062;-63
2022/05/01 11:35:56;;;;;;;5.78;2.75;;;;;;;20.80;47.31;101214.66;4949414;28;20055;-63
2022/05/01 11:38:30;;;;;;;3.30;2.72;;;;;;;20.77;48.01;101213.09;4950315;28;20047;-64
2022/05/01 11:41:00;;;;;;;3.47;2.50;;;;;;;20.59;48.83;101212.13;4940999;29;20047;-63
2022/05/01 11:43:28;;;;;;;3.50;2.80;;;;;;;20.64;48.35;101209.88;4950470;28;20082;-64
2022/05/01 11:45:59;;;;;;;4.10;2.90;;;;;;;20.67;48.52;101212.25;4950401;28;20043;-63
2022/05/01 11:48:26;;;;;;;5.43;2.72;;;;;;;20.78;48.70;101225.47;4954060;28;20145;-63
2022/05/01 11:50:53;;;;;;;4.40;3.30;;;;;;;20.81;48.66;101224.34;4952855;28;20043;-63
2022/05/01 11:53:23;;;;;;;3.40;2.63;;;;;;;20.81;48.81;101229.66;4953973;28;20086;-63
2022/05/01 12:04:33;;;;;;;3.20;2.42;;;;;;;20.54;46.72;101220.53;4953978;28;20491;-63
2022/05/01 12:07:08;;;;;;;5.88;2.28;;;;;;;20.63;46.13;101221.50;4952461;28;20055;-63